Time;durP1;ratioP1;P1;durP2;ratioP2;P2;SDS_P1;SDS_P2;PMS_P1;PMS_P2;Temp;Humidity;BMP_temperature;BMP_pressure;BME280_temperature;BME280_humidity;BME280_pressure;Samples;Min_cycle;Max_cycle;Signal;HPM_P1;HPM_P2
2022/03/08 00:01:21;;;;;;;;;;;2.40;71.00;;;;;;5077758;28;19909;-73
2022/03/08 00:03:47;;;;;;;;;;;2.40;71.20;;;;;;5077406;28;19935;-73
2022/03/08 00:06:12;;;;;;;;;;;2.40;71.40;;;;;;5077853;28;19909;-73
2022/03/08 00:08:38;;;;;;;;;;;2.40;71.40;;;;;;5077470;28;19909;-73
2022/03/08 00:11:04;;;;;;;;;;;2.40;71.50;;;;;;5077431;28;19908;-73
2022/03/08 00:13:30;;;;;;;;;;;2.30;71.60;;;;;;5077156;28;19915;-73
2022/03/08 00:15:55;;;;;;;;;;;2.30;71.70;;;;;;5077627;28;19909;-73
2022/03/08 00:18:21;;;;;;;;;;;2.30;71.80;;;;;;5077282;28;20291;-73
2022/03/08 00:20:47;;;;;;;;;;;2.30;71.80;;;;;;5077589;28;19916;-73
2022/03/08 00:23:12;;;;;;;;;;;2.40;72.00;;;;;;5077298;28;19908;-73
2022/03/08 00:25:38;;;;;;;;;;;2.40;72.40;;;;;;5077417;28;19909;-73
2022/03/08 00:28:04;;;;;;;;;;;2.40;72.40;;;;;;5076978;28;20359;-73
2022/03/08 00:30:30;;;;;;;;;;;2.40;72.20;;;;;;5077368;28;19919;-73
2022/03/08 00:32:55;;;;;;;;;;;2.40;72.20;;;;;;5072188;28;19912;-73
2022/03/08 00:35:22;;;;;;;;;;;2.40;72.50;;;;;;5077242;28;19962;-73
2022/03/08 00:37:49;;;;;;;;;;;2.40;72.30;;;;;;5077219;28;19909;-73
2022/03/08 00:40:16;;;;;;;;;;;2.30;72.50;;;;;;5075908;28;19955;-73
2022/03/08 00:42:42;;;;;;;;;;;2.30;72.30;;;;;;5080021;28;19919;-73
2022/03/08 00:45:08;;;;;;;;;;;2.30;72.50;;;;;;5080811;28;19924;-73
2022/03/08 00:47:39;;;;;;;;;;;2.30;72.80;;;;;;5080792;28;19908;-73
2022/03/08 00:50:06;;;;;;;;;;;2.30;72.50;;;;;;5081082;28;20390;-73
2022/03/08 00:52:32;;;;;;;;;;;2.30;72.60;;;;;;5080637;28;19909;-73
2022/03/08 00:54:58;;;;;;;;;;;2.20;72.40;;;;;;5080980;28;20390;-73
2022/03/08 00:57:24;;;;;;;;;;;2.20;72.70;;;;;;5062377;28;19909;-73
2022/03/08 00:59:50;;;;;;;;;;;2.10;72.70;;;;;;5062733;28;19919;-73
2022/03/08 01:02:15;;;;;;;;;;;2.10;72.60;;;;;;5080484;28;19912;-73
2022/03/08 01:04:41;;;;;;;;;;;2.10;72.40;;;;;;5062588;28;19968;-73
2022/03/08 01:07:07;;;;;;;;;;;2.00;72.60;;;;;;5062584;28;19909;-73
2022/03/08 01:09:33;;;;;;;;;;;2.00;73.00;;;;;;5080476;28;20322;-73
2022/03/08 01:11:58;;;;;;;;;;;2.00;73.20;;;;;;5080092;28;19908;-73
2022/03/08 01:14:24;;;;;;;;;;;2.00;73.20;;;;;;5080344;28;20398;-73
2022/03/08 01:16:50;;;;;;;;;;;2.00;73.20;;;;;;5080334;28;20303;-73
2022/03/08 01:19:15;;;;;;;;;;;1.90;73.00;;;;;;5080403;28;19913;-73
2022/03/08 01:21:41;;;;;;;;;;;1.90;73.10;;;;;;5080170;28;19909;-73
2022/03/08 01:24:07;;;;;;;;;;;1.90;73.10;;;;;;5080025;28;20456;-73
2022/03/08 01:26:33;;;;;;;;;;;1.90;73.10;;;;;;5079874;28;19959;-73
2022/03/08 01:28:59;;;;;;;;;;;1.90;73.20;;;;;;5080231;28;19916;-73
2022/03/08 01:31:25;;;;;;;;;;;1.90;73.40;;;;;;5077159;28;20011;-73
2022/03/08 01:33:50;;;;;;;;;;;1.90;73.40;;;;;;5078109;28;19908;-73
2022/03/08 01:36:16;;;;;;;;;;;1.90;73.40;;;;;;5079898;28;20005;-73
2022/03/08 01:38:42;;;;;;;;;;;1.90;73.40;;;;;;5061943;28;19913;-73
2022/03/08 01:41:07;;;;;;;;;;;1.90;73.60;;;;;;5078157;28;20386;-73
2022/03/08 01:43:33;;;;;;;;;;;1.90;73.80;;;;;;5079775;28;19908;-73
2022/03/08 01:45:59;;;;;;;;;;;2.00;73.80;;;;;;5079636;28;19947;-73
2022/03/08 01:48:24;;;;;;;;;;;2.00;73.60;;;;;;5079882;28;19915;-73
2022/03/08 01:50:50;;;;;;;;;;;2.00;73.40;;;;;;5079712;28;19913;-73
2022/03/08 01:53:16;;;;;;;;;;;2.00;73.30;;;;;;5079544;28;19995;-73
2022/03/08 01:55:42;;;;;;;;;;;2.00;73.30;;;;;;5079469;28;19916;-73
2022/03/08 01:58:07;;;;;;;;;;;2.00;73.10;;;;;;5079521;28;19908;-73
2022/03/08 02:00:33;;;;;;;;;;;1.90;73.00;;;;;;5061411;28;19913;-73
2022/03/08 02:02:59;;;;;;;;;;;1.90;73.00;;;;;;5061450;28;19912;-73
2022/03/08 02:05:25;;;;;;;;;;;1.90;73.10;;;;;;5079330;28;20362;-73
2022/03/08 02:07:51;;;;;;;;;;;1.90;73.20;;;;;;5079627;28;19908;-73
2022/03/08 02:10:17;;;;;;;;;;;1.90;73.40;;;;;;5061135;28;19931;-73
2022/03/08 02:12:42;;;;;;;;;;;1.90;73.60;;;;;;5079295;28;19916;-73
2022/03/08 02:15:12;;;;;;;;;;;1.90;73.30;;;;;;5079278;28;19961;-73
2022/03/08 02:17:38;;;;;;;;;;;2.00;73.50;;;;;;5079439;28;19908;-73
2022/03/08 02:20:03;;;;;;;;;;;2.00;73.40;;;;;;5079031;28;19919;-73
2022/03/08 02:22:29;;;;;;;;;;;2.10;73.40;;;;;;5079267;28;19909;-73
2022/03/08 02:24:55;;;;;;;;;;;2.10;73.40;;;;;;5078859;28;19909;-73
2022/03/08 02:27:21;;;;;;;;;;;2.20;73.50;;;;;;5078911;28;19909;-73
2022/03/08 02:29:47;;;;;;;;;;;2.20;73.50;;;;;;5078826;28;19909;-73
2022/03/08 02:32:12;;;;;;;;;;;2.30;73.50;;;;;;5073968;28;19916;-73
2022/03/08 02:34:38;;;;;;;;;;;2.30;73.60;;;;;;5078779;28;19966;-73
2022/03/08 02:37:07;;;;;;;;;;;2.30;73.60;;;;;;5078750;28;20058;-73
2022/03/08 02:39:33;;;;;;;;;;;2.40;74.50;;;;;;5077071;28;20434;-73
2022/03/08 02:41:59;;;;;;;;;;;2.40;73.90;;;;;;5078588;28;20021;-73
2022/03/08 02:44:25;;;;;;;;;;;2.50;73.90;;;;;;5078325;28;20287;-73
2022/03/08 02:46:51;;;;;;;;;;;2.50;73.80;;;;;;5078482;28;19916;-73
2022/03/08 02:49:17;;;;;;;;;;;2.50;73.60;;;;;;5078535;28;19912;-73
2022/03/08 02:51:43;;;;;;;;;;;2.60;73.50;;;;;;5078653;28;19958;-73
2022/03/08 02:54:08;;;;;;;;;;;2.60;73.70;;;;;;5078382;28;19943;-73
2022/03/08 02:56:34;;;;;;;;;;;2.60;73.80;;;;;;5078347;28;19919;-73
2022/03/08 02:59:00;;;;;;;;;;;2.60;73.70;;;;;;5078227;28;20407;-73
2022/03/08 03:01:25;;;;;;;;;;;2.70;73.90;;;;;;5078463;28;19999;-73
2022/03/08 03:03:51;;;;;;;;;;;2.70;73.60;;;;;;5077542;28;19978;-73
2022/03/08 03:06:17;;;;;;;;;;;2.70;73.70;;;;;;5078369;28;19912;-73
2022/03/08 03:08:43;;;;;;;;;;;2.80;74.10;;;;;;5078179;28;20314;-73
2022/03/08 03:11:09;;;;;;;;;;;2.80;74.10;;;;;;5078024;28;19999;-73
2022/03/08 03:13:34;;;;;;;;;;;2.80;74.00;;;;;;5078030;28;19909;-73
2022/03/08 03:16:00;;;;;;;;;;;2.80;74.10;;;;;;5078367;28;19995;-73
2022/03/08 03:18:25;;;;;;;;;;;2.90;73.80;;;;;;5077948;28;19915;-73
2022/03/08 03:20:51;;;;;;;;;;;2.90;73.60;;;;;;5078276;28;19916;-73
2022/03/08 03:23:17;;;;;;;;;;;2.90;73.90;;;;;;5077979;28;19908;-73
2022/03/08 03:25:42;;;;;;;;;;;3.00;73.90;;;;;;5078124;28;19909;-73
2022/03/08 03:28:08;;;;;;;;;;;3.00;74.10;;;;;;5077638;28;20365;-74
2022/03/08 03:30:33;;;;;;;;;;;3.00;73.90;;;;;;5078201;28;19916;-73
2022/03/08 03:33:01;;;;;;;;;;;3.10;73.80;;;;;;5072823;28;19916;-73
2022/03/08 03:35:26;;;;;;;;;;;3.10;73.60;;;;;;5077869;28;19914;-73
2022/03/08 03:37:52;;;;;;;;;;;3.10;74.00;;;;;;5077841;28;20007;-73
2022/03/08 03:40:18;;;;;;;;;;;3.20;73.80;;;;;;5076326;28;19912;-73
2022/03/08 03:42:43;;;;;;;;;;;3.20;73.80;;;;;;5077454;28;19975;-73
2022/03/08 03:45:09;;;;;;;;;;;3.20;73.40;;;;;;5077894;28;19931;-73
2022/03/08 03:47:35;;;;;;;;;;;3.30;73.50;;;;;;5077732;28;19916;-74
2022/03/08 03:50:01;;;;;;;;;;;3.30;73.40;;;;;;5077943;28;19967;-73
2022/03/08 03:52:26;;;;;;;;;;;3.30;73.30;;;;;;5077467;28;19912;-73
2022/03/08 03:54:52;;;;;;;;;;;3.30;73.30;;;;;;5077836;28;20437;-73
2022/03/08 03:57:17;;;;;;;;;;;3.40;73.40;;;;;;5077308;28;19909;-73
2022/03/08 03:59:43;;;;;;;;;;;3.40;73.10;;;;;;5059577;28;20339;-73
2022/03/08 04:02:09;;;;;;;;;;;3.40;73.00;;;;;;5077407;28;19976;-73
2022/03/08 04:04:34;;;;;;;;;;;3.40;73.00;;;;;;5077716;28;20284;-73
2022/03/08 04:07:00;;;;;;;;;;;3.50;73.20;;;;;;5077384;28;20000;-73
2022/03/08 04:09:26;;;;;;;;;;;3.50;72.90;;;;;;5077835;28;19915;-73
2022/03/08 04:11:51;;;;;;;;;;;3.50;73.00;;;;;;5077286;28;19995;-73
2022/03/08 04:14:17;;;;;;;;;;;3.50;72.70;;;;;;5077548;28;19954;-73
2022/03/08 04:16:43;;;;;;;;;;;3.60;72.90;;;;;;5080914;28;19958;-74
2022/03/08 04:19:08;;;;;;;;;;;3.60;72.90;;;;;;5081612;28;19938;-73
2022/03/08 04:21:34;;;;;;;;;;;3.60;72.80;;;;;;5081361;28;19959;-73
2022/03/08 04:24:00;;;;;;;;;;;3.60;72.70;;;;;;5081485;28;20371;-73
2022/03/08 04:26:25;;;;;;;;;;;3.60;72.70;;;;;;5081129;28;19916;-74
2022/03/08 04:28:51;;;;;;;;;;;3.60;72.80;;;;;;5081677;28;20437;-73
2022/03/08 04:31:17;;;;;;;;;;;3.60;73.00;;;;;;5079382;28;19958;-74
2022/03/08 04:33:42;;;;;;;;;;;3.70;73.30;;;;;;5078319;28;19975;-74
2022/03/08 04:36:08;;;;;;;;;;;3.70;73.50;;;;;;5081023;28;20336;-74
2022/03/08 04:38:34;;;;;;;;;;;3.70;74.00;;;;;;5081405;28;19953;-74
2022/03/08 04:41:05;;;;;;;;;;;3.70;73.80;;;;;;5079269;28;19912;-74
2022/03/08 04:43:31;;;;;;;;;;;3.70;73.60;;;;;;5080874;28;20297;-74
2022/03/08 04:45:57;;;;;;;;;;;3.70;73.70;;;;;;5080787;28;19921;-74
2022/03/08 04:48:23;;;;;;;;;;;3.70;73.80;;;;;;5081312;28;19909;-74
2022/03/08 04:50:48;;;;;;;;;;;3.70;73.70;;;;;;5080842;28;19991;-74
2022/03/08 04:53:14;;;;;;;;;;;3.70;73.80;;;;;;5080787;28;19948;-74
2022/03/08 04:55:42;;;;;;;;;;;3.70;73.70;;;;;;5079682;28;21317;-73
2022/03/08 04:58:07;;;;;;;;;;;3.70;74.00;;;;;;5062534;28;19957;-74
2022/03/08 05:00:33;;;;;;;;;;;3.70;73.60;;;;;;5062534;28;20007;-73
2022/03/08 05:02:59;;;;;;;;;;;3.70;74.20;;;;;;5062593;28;19960;-74
2022/03/08 05:05:24;;;;;;;;;;;3.70;73.40;;;;;;5080577;28;19984;-74
2022/03/08 05:07:50;;;;;;;;;;;3.70;73.60;;;;;;5062620;28;20294;-74
2022/03/08 05:10:16;;;;;;;;;;;3.70;73.90;;;;;;5062230;28;20006;-74
2022/03/08 05:12:42;;;;;;;;;;;3.70;73.90;;;;;;5080216;28;19908;-73
2022/03/08 05:15:07;;;;;;;;;;;3.70;74.20;;;;;;5080357;28;19916;-74
2022/03/08 05:17:33;;;;;;;;;;;3.70;74.10;;;;;;5080429;28;19916;-74
2022/03/08 05:19:59;;;;;;;;;;;3.70;74.10;;;;;;5080221;28;20019;-74
2022/03/08 05:22:24;;;;;;;;;;;3.70;74.00;;;;;;5080435;28;20398;-74
2022/03/08 05:24:50;;;;;;;;;;;3.80;74.00;;;;;;5080181;28;19940;-74
2022/03/08 05:27:16;;;;;;;;;;;3.80;73.90;;;;;;5079385;28;19908;-73
2022/03/08 05:29:41;;;;;;;;;;;3.80;73.80;;;;;;5080079;28;19908;-74
2022/03/08 05:32:07;;;;;;;;;;;3.80;73.60;;;;;;5075167;28;19954;-74
2022/03/08 05:34:33;;;;;;;;;;;3.80;73.60;;;;;;5079992;28;20007;-74
2022/03/08 05:36:58;;;;;;;;;;;3.80;73.60;;;;;;5080205;28;19916;-74
2022/03/08 05:39:24;;;;;;;;;;;3.80;73.40;;;;;;5078135;28;19913;-74
2022/03/08 05:41:50;;;;;;;;;;;3.80;73.50;;;;;;5079864;28;19953;-74
2022/03/08 05:44:16;;;;;;;;;;;3.80;73.50;;;;;;5079619;28;19908;-74
2022/03/08 05:46:42;;;;;;;;;;;3.80;74.30;;;;;;5061694;28;19928;-74
2022/03/08 05:49:07;;;;;;;;;;;3.80;73.60;;;;;;5079818;28;19912;-74
2022/03/08 05:51:33;;;;;;;;;;;3.80;73.70;;;;;;5079916;28;19992;-74
2022/03/08 05:53:59;;;;;;;;;;;3.80;73.60;;;;;;5079642;28;19908;-74
2022/03/08 05:56:24;;;;;;;;;;;3.80;73.60;;;;;;5079380;28;19955;-74
2022/03/08 05:58:50;;;;;;;;;;;3.80;73.80;;;;;;5079534;28;19912;-74
2022/03/08 06:01:16;;;;;;;;;;;3.80;73.80;;;;;;5079717;28;20440;-74
2022/03/08 06:03:41;;;;;;;;;;;3.70;73.90;;;;;;5075065;28;19908;-75
2022/03/08 06:06:07;;;;;;;;;;;3.70;74.00;;;;;;5079603;28;19952;-77
2022/03/08 06:08:33;;;;;;;;;;;3.70;74.00;;;;;;5079386;28;20035;-73
2022/03/08 06:10:58;;;;;;;;;;;3.70;74.10;;;;;;5079078;28;19915;-72
2022/03/08 06:13:24;;;;;;;;;;;3.70;74.40;;;;;;5079164;28;19915;-72
2022/03/08 06:15:49;;;;;;;;;;;3.60;74.20;;;;;;5079548;28;19938;-72
2022/03/08 06:18:15;;;;;;;;;;;3.60;74.20;;;;;;5079120;28;19908;-72
2022/03/08 06:20:41;;;;;;;;;;;3.60;74.20;;;;;;5079215;28;19912;-73
2022/03/08 06:23:06;;;;;;;;;;;3.60;74.30;;;;;;5079127;28;20359;-77
2022/03/08 06:25:32;;;;;;;;;;;3.60;74.30;;;;;;5061465;28;20359;-75
2022/03/08 06:27:58;;;;;;;;;;;3.60;74.40;;;;;;5060700;28;19916;-76
2022/03/08 06:30:24;;;;;;;;;;;3.60;74.50;;;;;;5061325;28;19962;-72
2022/03/08 06:32:49;;;;;;;;;;;3.60;74.60;;;;;;5073928;28;19973;-76
2022/03/08 06:35:15;;;;;;;;;;;3.60;74.80;;;;;;5079149;28;20450;-72
2022/03/08 06:37:40;;;;;;;;;;;3.60;74.80;;;;;;5078856;28;19975;-72
2022/03/08 06:40:07;;;;;;;;;;;3.60;74.90;;;;;;5076212;28;19912;-71
2022/03/08 06:42:33;;;;;;;;;;;3.70;74.90;;;;;;5078250;28;19915;-75
2022/03/08 06:44:58;;;;;;;;;;;3.70;75.10;;;;;;5078902;28;20287;-76
2022/03/08 06:47:24;;;;;;;;;;;3.70;75.20;;;;;;5078602;28;19916;-76
2022/03/08 06:49:50;;;;;;;;;;;3.70;75.40;;;;;;5078702;28;19916;-76
2022/03/08 06:52:15;;;;;;;;;;;3.70;75.30;;;;;;5078586;28;20003;-73
2022/03/08 06:54:41;;;;;;;;;;;3.70;76.00;;;;;;5078470;28;19909;-75
2022/03/08 06:57:06;;;;;;;;;;;3.70;75.40;;;;;;5077687;28;19915;-75
2022/03/08 06:59:32;;;;;;;;;;;3.80;75.40;;;;;;5078099;28;19920;-75
2022/03/08 07:01:58;;;;;;;;;;;3.80;75.60;;;;;;5059225;28;19973;-75
2022/03/08 07:04:24;;;;;;;;;;;3.80;75.60;;;;;;5077746;28;19908;-75
2022/03/08 07:06:50;;;;;;;;;;;3.70;75.60;;;;;;5077324;28;19912;-75
2022/03/08 07:09:16;;;;;;;;;;;3.80;75.70;;;;;;5078174;28;19909;-75
2022/03/08 07:11:42;;;;;;;;;;;3.80;75.70;;;;;;5077948;28;19917;-75
2022/03/08 07:14:07;;;;;;;;;;;3.80;75.70;;;;;;5078240;28;19987;-75
2022/03/08 07:16:33;;;;;;;;;;;3.80;75.80;;;;;;5078173;28;19908;-75
2022/03/08 07:18:59;;;;;;;;;;;3.80;75.50;;;;;;5078402;28;19918;-75
2022/03/08 07:21:24;;;;;;;;;;;3.90;75.70;;;;;;5077040;28;19908;-75
2022/03/08 07:23:50;;;;;;;;;;;3.90;75.80;;;;;;5078123;28;19958;-75
2022/03/08 07:26:16;;;;;;;;;;;3.90;75.80;;;;;;5077680;28;19912;-75
2022/03/08 07:28:41;;;;;;;;;;;3.90;75.90;;;;;;5078234;28;19961;-75
2022/03/08 07:31:07;;;;;;;;;;;3.90;75.70;;;;;;5077676;28;19909;-75
2022/03/08 07:33:33;;;;;;;;;;;4.00;75.90;;;;;;5073762;28;19909;-75
2022/03/08 07:35:59;;;;;;;;;;;4.00;76.10;;;;;;5077808;28;20367;-75
2022/03/08 07:38:25;;;;;;;;;;;4.00;75.90;;;;;;5078269;28;19995;-75
2022/03/08 07:40:52;;;;;;;;;;;4.10;76.20;;;;;;5076246;28;19912;-75
2022/03/08 07:43:17;;;;;;;;;;;4.10;76.10;;;;;;5059750;28;19909;-74
2022/03/08 07:45:43;;;;;;;;;;;4.20;76.10;;;;;;5077665;28;19921;-75
2022/03/08 07:48:09;;;;;;;;;;;4.20;75.90;;;;;;5077981;28;20280;-75
2022/03/08 07:50:37;;;;;;;;;;;4.20;75.90;;;;;;5077534;28;19915;-75
2022/03/08 07:53:03;;;;;;;;;;;4.30;76.00;;;;;;5077853;28;20260;-75
2022/03/08 07:55:29;;;;;;;;;;;4.40;76.10;;;;;;5077712;28;19908;-75
2022/03/08 07:57:55;;;;;;;;;;;4.40;76.10;;;;;;5077589;28;19908;-75
2022/03/08 08:00:21;;;;;;;;;;;4.50;76.10;;;;;;5077635;28;19913;-75
2022/03/08 08:02:47;;;;;;;;;;;4.60;76.00;;;;;;5077780;28;20363;-75
2022/03/08 08:05:12;;;;;;;;;;;4.70;76.10;;;;;;5077496;28;19916;-75
2022/03/08 08:07:38;;;;;;;;;;;4.70;76.00;;;;;;5077801;28;19915;-75
2022/03/08 08:10:04;;;;;;;;;;;4.80;76.00;;;;;;5077421;28;19940;-75
2022/03/08 08:12:30;;;;;;;;;;;4.90;76.30;;;;;;5077325;28;19909;-75
2022/03/08 08:14:55;;;;;;;;;;;4.90;76.70;;;;;;5077546;28;20325;-75
2022/03/08 08:17:21;;;;;;;;;;;5.00;76.00;;;;;;5077804;28;19909;-75
2022/03/08 08:19:46;;;;;;;;;;;5.00;76.20;;;;;;5077471;28;19913;-75
2022/03/08 08:22:12;;;;;;;;;;;5.00;76.20;;;;;;5077508;28;19909;-75
2022/03/08 08:24:38;;;;;;;;;;;5.10;76.20;;;;;;5077433;28;19958;-75
2022/03/08 08:27:03;;;;;;;;;;;5.10;76.40;;;;;;5077446;28;19955;-75
2022/03/08 08:29:29;;;;;;;;;;;5.10;76.20;;;;;;5077459;28;19943;-75
2022/03/08 08:31:55;;;;;;;;;;;5.20;76.30;;;;;;5072512;28;19996;-75
2022/03/08 08:34:20;;;;;;;;;;;5.20;76.50;;;;;;5077287;28;19979;-75
2022/03/08 08:36:47;;;;;;;;;;;5.20;76.60;;;;;;5077358;28;19951;-75
2022/03/08 08:39:14;;;;;;;;;;;5.30;76.60;;;;;;5075619;28;20009;-75
2022/03/08 08:41:41;;;;;;;;;;;5.30;76.60;;;;;;5077236;28;19967;-75
2022/03/08 08:44:07;;;;;;;;;;;5.40;76.80;;;;;;5077164;28;19909;-75
2022/03/08 08:46:32;;;;;;;;;;;5.40;76.70;;;;;;5077110;28;20402;-75
2022/03/08 08:48:58;;;;;;;;;;;5.40;76.80;;;;;;5077351;28;19930;-75
2022/03/08 08:51:23;;;;;;;;;;;5.50;76.90;;;;;;5077258;28;19908;-75
2022/03/08 08:53:49;;;;;;;;;;;5.60;76.90;;;;;;5077232;28;20353;-75
2022/03/08 08:56:15;;;;;;;;;;;5.60;76.70;;;;;;5077052;28;19958;-75
2022/03/08 08:58:40;;;;;;;;;;;5.70;76.70;;;;;;5077091;28;19995;-75
2022/03/08 09:01:06;;;;;;;;;;;5.70;76.80;;;;;;5077439;28;19987;-75
2022/03/08 09:03:31;;;;;;;;;;;5.80;76.70;;;;;;5079902;28;19908;-75
2022/03/08 09:05:58;;;;;;;;;;;5.80;76.60;;;;;;5080776;28;19909;-75
2022/03/08 09:08:24;;;;;;;;;;;5.90;76.60;;;;;;5080487;28;20400;-75
2022/03/08 09:10:51;;;;;;;;;;;5.90;76.60;;;;;;5080288;28;19920;-75
2022/03/08 09:13:16;;;;;;;;;;;6.00;76.60;;;;;;5080293;28;20268;-75
2022/03/08 09:15:42;;;;;;;;;;;6.10;76.50;;;;;;5080787;28;19908;-75
2022/03/08 09:18:08;;;;;;;;;;;6.10;76.40;;;;;;5080358;28;19916;-75
2022/03/08 09:20:34;;;;;;;;;;;6.20;76.40;;;;;;5080735;28;19913;-75
2022/03/08 09:23:00;;;;;;;;;;;6.30;76.40;;;;;;5080248;28;19959;-75
2022/03/08 09:25:26;;;;;;;;;;;6.40;76.30;;;;;;5080231;28;20388;-75
2022/03/08 09:27:52;;;;;;;;;;;6.50;76.10;;;;;;5079927;28;19944;-75
2022/03/08 09:30:18;;;;;;;;;;;6.60;75.90;;;;;;5080396;28;19915;-75
2022/03/08 09:32:44;;;;;;;;;;;6.70;75.80;;;;;;5075110;28;19947;-75
2022/03/08 09:35:09;;;;;;;;;;;6.70;75.70;;;;;;5080449;28;19920;-75
2022/03/08 09:37:35;;;;;;;;;;;6.80;75.60;;;;;;5080102;28;20367;-75
2022/03/08 09:40:02;;;;;;;;;;;6.90;75.50;;;;;;5078370;28;19971;-75
2022/03/08 09:42:29;;;;;;;;;;;7.00;75.50;;;;;;5079527;28;19947;-75
2022/03/08 09:44:55;;;;;;;;;;;7.10;75.30;;;;;;5080063;28;20260;-75
2022/03/08 09:47:21;;;;;;;;;;;7.20;75.20;;;;;;5079828;28;19909;-75
2022/03/08 09:49:46;;;;;;;;;;;7.30;75.10;;;;;;5079897;28;19909;-75
2022/03/08 09:52:12;;;;;;;;;;;7.40;75.00;;;;;;5079661;28;19915;-75
2022/03/08 09:54:37;;;;;;;;;;;7.40;74.90;;;;;;5080117;28;19908;-75
2022/03/08 09:57:10;;;;;;;;;;;7.50;74.80;;;;;;5079377;28;19954;-75
2022/03/08 09:59:35;;;;;;;;;;;7.60;74.80;;;;;;5079942;28;19912;-75
2022/03/08 10:02:01;;;;;;;;;;;7.80;74.80;;;;;;5079498;28;20386;-75
2022/03/08 10:04:27;;;;;;;;;;;7.80;74.60;;;;;;5079448;28;19908;-75
2022/03/08 10:06:52;;;;;;;;;;;8.00;74.60;;;;;;5079465;28;20490;-75
2022/03/08 10:09:19;;;;;;;;;;;8.10;74.50;;;;;;5079557;28;19912;-75
2022/03/08 10:11:49;;;;;;;;;;;8.10;74.30;;;;;;5079188;28;20266;-75
2022/03/08 10:14:29;;;;;;;;;;;8.20;74.30;;;;;;5079237;28;19909;-75
2022/03/08 10:16:55;;;;;;;;;;;8.30;74.30;;;;;;5079284;28;19909;-75
2022/03/08 10:19:21;;;;;;;;;;;8.30;74.20;;;;;;5079190;28;19920;-75
2022/03/08 10:21:47;;;;;;;;;;;8.40;74.10;;;;;;5079333;28;19912;-75
2022/03/08 10:24:17;;;;;;;;;;;8.40;74.10;;;;;;5079066;28;19908;-75
2022/03/08 10:26:50;;;;;;;;;;;8.50;74.10;;;;;;5078968;28;19908;-75
2022/03/08 10:29:23;;;;;;;;;;;8.60;74.10;;;;;;5079071;28;20053;-75
2022/03/08 10:31:49;;;;;;;;;;;8.60;74.10;;;;;;5074124;28;19908;-75
2022/03/08 10:34:17;;;;;;;;;;;8.70;74.20;;;;;;5078992;28;20275;-75
2022/03/08 10:36:57;;;;;;;;;;;8.80;74.30;;;;;;5078795;28;19908;-75
2022/03/08 10:39:22;;;;;;;;;;;8.90;74.30;;;;;;5077407;28;19919;-75
2022/03/08 10:41:50;;;;;;;;;;;9.00;74.40;;;;;;5078731;28;19940;-75
2022/03/08 10:44:16;;;;;;;;;;;9.10;74.30;;;;;;5078763;28;19948;-75
2022/03/08 10:46:42;;;;;;;;;;;9.10;74.20;;;;;;5078558;28;19924;-75
2022/03/08 10:49:13;;;;;;;;;;;9.20;74.40;;;;;;5078672;28;20011;-75
2022/03/08 10:51:39;;;;;;;;;;;9.20;74.30;;;;;;5078705;28;19908;-76
2022/03/08 10:54:12;;;;;;;;;;;9.30;74.30;;;;;;5078322;28;19916;-76
2022/03/08 10:56:45;;;;;;;;;;;9.30;74.30;;;;;;5078457;28;19909;-76
2022/03/08 10:59:12;;;;;;;;;;;9.30;74.50;;;;;;5078313;28;20367;-76
2022/03/08 11:01:38;;;;;;;;;;;9.40;74.60;;;;;;5078498;28;19915;-75
2022/03/08 11:04:04;;;;;;;;;;;9.50;74.50;;;;;;5078369;28;19958;-75
2022/03/08 11:06:31;;;;;;;;;;;9.70;74.70;;;;;;5078368;28;19908;-75
2022/03/08 11:08:56;;;;;;;;;;;9.80;74.70;;;;;;5078037;28;20370;-75
2022/03/08 11:11:22;;;;;;;;;;;10.00;74.20;;;;;;5078024;28;19974;-75
2022/03/08 11:13:50;;;;;;;;;;;10.20;73.90;;;;;;5078181;28;20414;-76
2022/03/08 11:16:16;;;;;;;;;;;10.40;73.90;;;;;;5078323;28;19915;-76
2022/03/08 11:18:49;;;;;;;;;;;10.50;73.60;;;;;;5078260;28;19909;-75
2022/03/08 11:21:15;;;;;;;;;;;10.60;73.30;;;;;;5078110;28;19955;-76
2022/03/08 11:23:42;;;;;;;;;;;10.70;72.90;;;;;;5078287;28;19968;-76
2022/03/08 11:26:09;;;;;;;;;;;10.80;72.60;;;;;;5076966;28;19909;-76
2022/03/08 11:28:35;;;;;;;;;;;11.00;72.60;;;;;;5078481;28;19966;-76
2022/03/08 11:31:00;;;;;;;;;;;11.00;72.70;;;;;;5077919;28;20359;-75
2022/03/08 11:33:44;;;;;;;;;;;11.00;72.80;;;;;;5072941;28;20283;-76
2022/03/08 11:36:29;;;;;;;;;;;11.00;72.60;;;;;;5077617;28;19919;-75
2022/03/08 11:39:11;;;;;;;;;;;11.20;72.40;;;;;;5077715;28;19908;-76
2022/03/08 11:41:37;;;;;;;;;;;11.30;72.50;;;;;;5077782;28;20422;-76
2022/03/08 11:44:03;;;;;;;;;;;11.40;72.20;;;;;;5077737;28;19915;-76
2022/03/08 11:46:29;;;;;;;;;;;11.50;72.10;;;;;;5077823;28;20011;-76
2022/03/08 11:48:59;;;;;;;;;;;11.60;71.90;;;;;;5077778;28;19930;-76
2022/03/08 11:51:26;;;;;;;;;;;11.70;71.90;;;;;;5078068;28;19959;-76
2022/03/08 11:54:05;;;;;;;;;;;11.80;71.70;;;;;;5077633;28;19915;-77
2022/03/08 11:56:42;;;;;;;;;;;11.80;71.50;;;;;;5077444;28;19919;-76
2022/03/08 11:59:09;;;;;;;;;;;11.90;71.80;;;;;;5077599;28;19927;-76
2022/03/08 12:01:36;;;;;;;;;;;12.00;72.00;;;;;;5077968;28;19908;-76
2022/03/08 12:04:10;;;;;;;;;;;12.10;72.00;;;;;;5077476;28;19916;-76
2022/03/08 12:06:36;;;;;;;;;;;12.20;71.70;;;;;;5077759;28;20282;-76
2022/03/08 12:09:07;;;;;;;;;;;12.30;71.70;;;;;;5077568;28;19912;-76
2022/03/08 12:11:37;;;;;;;;;;;12.40;71.10;;;;;;5077359;28;19908;-76
2022/03/08 12:14:03;;;;;;;;;;;12.50;70.90;;;;;;5077756;28;19935;-76
2022/03/08 12:16:29;;;;;;;;;;;12.40;70.80;;;;;;5077396;28;19908;-76
2022/03/08 12:18:55;;;;;;;;;;;12.40;70.70;;;;;;5077531;28;19954;-75
2022/03/08 12:21:21;;;;;;;;;;;12.30;70.80;;;;;;5059414;28;20430;-75
2022/03/08 12:23:50;;;;;;;;;;;12.20;71.10;;;;;;5077549;28;19963;-76
2022/03/08 12:26:23;;;;;;;;;;;12.10;71.30;;;;;;5077144;28;19912;-75
2022/03/08 12:29:04;;;;;;;;;;;12.00;71.90;;;;;;5077654;28;19913;-75
2022/03/08 12:31:29;;;;;;;;;;;12.00;72.20;;;;;;5073769;28;19966;-75
2022/03/08 12:34:07;;;;;;;;;;;11.90;72.10;;;;;;5076272;28;19908;-75
2022/03/08 12:36:34;;;;;;;;;;;11.90;72.20;;;;;;5078794;28;19916;-75
2022/03/08 12:39:00;;;;;;;;;;;11.90;72.50;;;;;;5081069;28;19971;-75
2022/03/08 12:41:26;;;;;;;;;;;11.80;72.70;;;;;;5079568;28;19908;-76
2022/03/08 12:44:02;;;;;;;;;;;11.80;72.90;;;;;;5081391;28;20260;-75
2022/03/08 12:46:28;;;;;;;;;;;11.80;73.00;;;;;;5067955;28;19985;-75
2022/03/08 12:48:54;;;;;;;;;;;11.80;73.20;;;;;;5080993;28;19909;-75
2022/03/08 12:51:23;;;;;;;;;;;11.90;73.20;;;;;;5081090;28;19913;-75
2022/03/08 12:53:57;;;;;;;;;;;11.80;73.20;;;;;;5080875;28;19987;-75
2022/03/08 12:56:23;;;;;;;;;;;11.80;73.20;;;;;;5080664;28;19915;-75
2022/03/08 12:58:49;;;;;;;;;;;11.80;73.20;;;;;;5080822;28;19908;-75
2022/03/08 13:01:15;;;;;;;;;;;11.80;73.50;;;;;;5080949;28;20311;-75
2022/03/08 13:03:44;;;;;;;;;;;11.80;73.50;;;;;;5076338;28;20379;-75
2022/03/08 13:06:10;;;;;;;;;;;11.80;73.40;;;;;;5080952;28;19913;-75
2022/03/08 13:08:37;;;;;;;;;;;11.80;73.50;;;;;;5080642;28;19909;-75
2022/03/08 13:11:07;;;;;;;;;;;11.70;73.60;;;;;;5080117;28;19908;-75
2022/03/08 13:13:36;;;;;;;;;;;11.70;73.90;;;;;;5080363;28;19908;-75
2022/03/08 13:16:01;;;;;;;;;;;11.70;73.80;;;;;;5080600;28;20003;-75
2022/03/08 13:18:30;;;;;;;;;;;11.60;73.80;;;;;;5080373;28;19950;-75
2022/03/08 13:20:57;;;;;;;;;;;11.60;74.00;;;;;;5080601;28;19913;-75
2022/03/08 13:23:23;;;;;;;;;;;11.60;74.60;;;;;;5080212;28;19915;-75
2022/03/08 13:25:50;;;;;;;;;;;11.60;75.20;;;;;;5080180;28;19971;-75
2022/03/08 13:28:17;;;;;;;;;;;11.50;74.70;;;;;;5062513;28;19915;-75
2022/03/08 13:30:49;;;;;;;;;;;11.50;74.90;;;;;;5080385;28;19981;-75
2022/03/08 13:33:15;;;;;;;;;;;11.60;74.90;;;;;;5073302;28;19908;-75
2022/03/08 13:36:01;;;;;;;;;;;11.60;75.50;;;;;;5080168;28;19915;-76
2022/03/08 13:38:37;;;;;;;;;;;11.60;75.40;;;;;;5067108;28;19999;-75
2022/03/08 13:41:04;;;;;;;;;;;11.70;75.30;;;;;;5060758;28;19919;-75
2022/03/08 13:43:31;;;;;;;;;;;11.80;75.50;;;;;;5080221;28;19944;-75
2022/03/08 13:45:58;;;;;;;;;;;11.90;75.50;;;;;;5079741;28;19925;-75
2022/03/08 13:48:31;;;;;;;;;;;11.90;75.10;;;;;;5079448;28;19909;-75
2022/03/08 13:51:01;;;;;;;;;;;12.00;75.00;;;;;;5079796;28;20399;-75
2022/03/08 13:53:27;;;;;;;;;;;12.00;74.80;;;;;;5079744;28;19912;-75
2022/03/08 13:55:55;;;;;;;;;;;12.10;74.80;;;;;;5079371;28;20003;-75
2022/03/08 13:58:21;;;;;;;;;;;12.20;75.00;;;;;;5079943;28;19930;-75
2022/03/08 14:00:48;;;;;;;;;;;12.20;74.80;;;;;;5079710;28;19913;-75
2022/03/08 14:03:14;;;;;;;;;;;12.20;74.60;;;;;;5079829;28;19908;-75
2022/03/08 14:05:49;;;;;;;;;;;12.30;74.60;;;;;;5079488;28;20362;-75
2022/03/08 14:08:31;;;;;;;;;;;12.40;74.70;;;;;;5079759;28;19908;-75
2022/03/08 14:10:59;;;;;;;;;;;12.40;74.60;;;;;;5075904;28;19931;-75
2022/03/08 14:13:25;;;;;;;;;;;12.50;74.40;;;;;;5079438;28;19908;-76
2022/03/08 14:15:56;;;;;;;;;;;12.50;74.30;;;;;;5079495;28;20356;-76
2022/03/08 14:18:22;;;;;;;;;;;12.60;74.40;;;;;;5079369;28;19909;-75
2022/03/08 14:20:48;;;;;;;;;;;12.60;74.30;;;;;;5079550;28;19961;-76
2022/03/08 14:23:13;;;;;;;;;;;12.70;74.20;;;;;;5079281;28;19908;-75